Time;durP1;ratioP1;P1;durP2;ratioP2;P2;SDS_P1;SDS_P2;PMS_P1;PMS_P2;Temp;Humidity;BMP_temperature;BMP_pressure;BME280_temperature;BME280_humidity;BME280_pressure;Samples;Min_cycle;Max_cycle;Signal;HPM_P1;HPM_P2
2022/11/21 00:00:59;;;;;;;6.85;1.00;;;13.40;99.90;;;;;;5111357;28;20031;-74
2022/11/21 00:03:26;;;;;;;4.57;0.80;;;13.40;99.90;;;;;;5111116;28;20030;-73
2022/11/21 00:05:52;;;;;;;6.90;0.82;;;13.50;99.90;;;;;;5111296;28;20020;-73
2022/11/21 00:08:20;;;;;;;4.23;1.10;;;13.40;99.90;;;;;;5110874;28;20058;-74
2022/11/21 00:10:46;;;;;;;5.68;0.98;;;13.50;99.90;;;;;;5111027;28;20031;-74
2022/11/21 00:13:42;;;;;;;4.70;0.85;;;13.50;99.90;;;;;;5110797;28;20028;-74
2022/11/21 00:16:11;;;;;;;5.57;0.80;;;13.50;99.90;;;;;;5110090;28;20165;-73
2022/11/21 00:18:38;;;;;;;4.57;0.90;;;13.50;99.90;;;;;;5111082;28;20069;-73
2022/11/21 00:21:12;;;;;;;7.88;1.20;;;13.50;99.90;;;;;;5110955;28;20023;-74
2022/11/21 00:23:38;;;;;;;5.72;1.00;;;13.50;99.90;;;;;;5110865;28;20062;-74
2022/11/21 00:26:06;;;;;;;6.97;1.07;;;13.50;99.90;;;;;;5110802;28;20091;-74
2022/11/21 00:28:32;;;;;;;7.63;1.10;;;13.40;99.90;;;;;;5110655;28;20098;-74
2022/11/21 00:30:58;;;;;;;5.10;1.00;;;13.30;99.90;;;;;;5110836;28;20087;-73
2022/11/21 00:33:24;;;;;;;2.47;0.80;;;13.30;99.90;;;;;;5092398;28;20465;-74
2022/11/21 00:35:50;;;;;;;4.30;0.70;;;13.20;99.90;;;;;;5110786;28;20023;-74
2022/11/21 00:38:17;;;;;;;1.70;0.70;;;13.20;99.90;;;;;;5110730;28;20054;-74
2022/11/21 00:40:43;;;;;;;3.88;0.80;;;13.20;99.90;;;;;;5110588;28;20096;-74
2022/11/21 00:43:10;;;;;;;3.92;0.90;;;13.10;99.90;;;;;;5110539;28;20024;-74
2022/11/21 00:45:36;;;;;;;5.97;1.10;;;13.00;99.90;;;;;;5113777;28;20150;-74
2022/11/21 00:48:02;;;;;;;4.25;1.23;;;12.90;99.90;;;;;;5115030;28;20023;-74
2022/11/21 00:50:28;;;;;;;6.40;1.00;;;13.00;99.90;;;;;;5114635;28;20034;-72
2022/11/21 00:52:58;;;;;;;6.00;1.03;;;13.00;99.90;;;;;;5114737;28;20103;-73
2022/11/21 00:55:24;;;;;;;3.55;0.80;;;12.90;99.90;;;;;;5114631;28;20471;-73
2022/11/21 00:57:51;;;;;;;8.07;0.80;;;12.90;99.90;;;;;;5114748;28;20052;-73
2022/11/21 01:00:17;;;;;;;4.78;1.15;;;12.90;99.90;;;;;;5114830;28;20118;-74
2022/11/21 01:02:43;;;;;;;9.52;1.05;;;12.90;99.90;;;;;;5095991;28;20115;-73
2022/11/21 01:05:09;;;;;;;6.70;0.90;;;12.90;99.90;;;;;;5114721;28;20058;-74
2022/11/21 01:07:35;;;;;;;6.32;1.02;;;12.90;99.90;;;;;;5114483;28;20285;-74
2022/11/21 01:10:02;;;;;;;4.27;1.00;;;12.90;99.90;;;;;;5114220;28;20358;-74
2022/11/21 01:12:28;;;;;;;6.80;1.10;;;12.90;99.90;;;;;;5095382;28;20146;-73
2022/11/21 01:14:54;;;;;;;4.10;0.90;;;12.90;99.90;;;;;;5114457;28;20051;-74
2022/11/21 01:17:20;;;;;;;5.20;0.80;;;13.00;99.90;;;;;;5114204;28;20043;-74
2022/11/21 01:19:46;;;;;;;4.47;0.90;;;13.00;99.90;;;;;;5095418;28;20031;-74
2022/11/21 01:22:12;;;;;;;6.17;1.00;;;13.00;99.90;;;;;;5113779;28;20067;-73
2022/11/21 01:24:38;;;;;;;6.17;1.20;;;12.90;99.90;;;;;;5114340;28;20031;-74
2022/11/21 01:27:04;;;;;;;5.63;0.90;;;12.90;99.90;;;;;;5114068;28;20489;-74
2022/11/21 01:29:30;;;;;;;7.53;1.30;;;12.90;99.90;;;;;;5113715;28;20023;-74
2022/11/21 01:31:56;;;;;;;4.30;1.10;;;12.90;99.90;;;;;;5113773;28;20111;-74
2022/11/21 01:34:22;;;;;;;5.07;1.05;;;12.90;99.90;;;;;;5113710;28;20046;-73
2022/11/21 01:36:48;;;;;;;3.55;0.82;;;12.90;99.90;;;;;;5113802;28;20023;-74
2022/11/21 01:39:14;;;;;;;5.07;1.50;;;12.90;99.90;;;;;;5113577;28;20135;-74
2022/11/21 01:41:42;;;;;;;5.17;1.50;;;12.90;99.90;;;;;;5113820;28;20024;-74
2022/11/21 01:44:24;;;;;;;3.17;1.67;;;12.90;99.90;;;;;;5113596;28;20035;-73
2022/11/21 01:46:51;;;;;;;5.53;1.40;;;12.90;99.90;;;;;;5113483;28;20016;-73
2022/11/21 01:49:28;;;;;;;;;;;12.90;99.90;;;;;;5114030;28;20030;-73
2022/11/21 01:52:06;;;;;;;4.75;1.55;;;12.90;99.90;;;;;;5113446;28;19948;-74
2022/11/21 01:54:41;;;;;;;6.10;1.23;;;13.00;99.90;;;;;;5113407;28;20020;-74
2022/11/21 01:57:28;;;;;;;4.35;1.20;;;13.00;99.90;;;;;;5113348;28;20028;-73
2022/11/21 02:00:25;;;;;;;4.50;1.23;;;13.00;99.90;;;;;;5113028;28;20400;-74
2022/11/21 02:02:55;;;;;;;2.85;0.88;;;13.00;99.90;;;;;;5089705;28;20452;-73
2022/11/21 02:05:25;;;;;;;4.60;1.20;;;13.00;99.90;;;;;;5113471;28;20020;-74
2022/11/21 02:07:56;;;;;;;4.90;1.00;;;13.00;99.90;;;;;;5094678;28;20388;-73
2022/11/21 02:10:22;;;;;;;4.03;0.80;;;13.00;99.90;;;;;;5113173;28;20102;-74
2022/11/21 02:12:55;;;;;;;4.75;0.80;;;13.10;99.90;;;;;;5113165;28;20095;-73
2022/11/21 02:15:24;;;;;;;6.97;1.10;;;13.10;99.90;;;;;;5112935;28;20037;-74
2022/11/21 02:17:50;;;;;;;3.70;1.05;;;13.20;99.90;;;;;;5112744;28;20028;-74
2022/11/21 02:20:24;;;;;;;7.68;0.98;;;13.20;99.90;;;;;;5112950;28;20063;-74
2022/11/21 02:23:07;;;;;;;3.97;0.80;;;13.30;99.90;;;;;;5112888;28;20398;-73
2022/11/21 02:25:38;;;;;;;5.78;0.90;;;13.30;99.90;;;;;;5112895;28;20023;-74
2022/11/21 02:28:08;;;;;;;7.30;1.00;;;13.40;99.90;;;;;;5112480;28;20439;-73
2022/11/21 02:30:38;;;;;;;3.65;0.80;;;13.40;99.90;;;;;;5112794;28;20310;-74
2022/11/21 02:33:04;;;;;;;3.42;0.90;;;13.30;99.90;;;;;;5112690;28;20028;-73
2022/11/21 02:35:32;;;;;;;2.47;0.70;;;13.30;99.90;;;;;;5094072;28;20046;-74
2022/11/21 02:38:05;;;;;;;3.53;1.00;;;13.40;99.90;;;;;;5112321;28;20067;-74
2022/11/21 02:40:35;;;;;;;3.17;0.70;;;13.30;99.90;;;;;;5112696;28;20082;-74
2022/11/21 02:43:20;;;;;;;7.70;1.38;;;13.30;99.90;;;;;;5112738;28;20027;-73
2022/11/21 02:45:47;;;;;;;3.93;1.10;;;13.30;99.90;;;;;;5112537;28;20046;-74
2022/11/21 02:48:13;;;;;;;7.73;1.27;;;13.30;99.90;;;;;;5112125;28;20092;-73
2022/11/21 02:50:41;;;;;;;5.43;1.00;;;13.30;99.90;;;;;;5112221;28;20265;-73
2022/11/21 02:53:11;;;;;;;6.45;0.95;;;13.40;99.90;;;;;;5112212;28;20103;-74
2022/11/21 02:55:37;;;;;;;5.45;1.52;;;13.30;99.90;;;;;;5112270;28;20447;-74
2022/11/21 02:58:04;;;;;;;4.85;0.95;;;13.30;99.90;;;;;;5112311;28;20689;-74
2022/11/21 03:00:30;;;;;;;8.43;1.33;;;13.30;99.90;;;;;;5112296;28;20020;-74
2022/11/21 03:02:56;;;;;;;2.85;0.80;;;13.30;99.90;;;;;;5111985;28;20139;-74
2022/11/21 03:05:23;;;;;;;8.40;1.40;;;13.30;99.90;;;;;;5112324;28;20134;-73
2022/11/21 03:07:49;;;;;;;8.07;1.60;;;13.40;99.90;;;;;;5111333;28;20482;-73
2022/11/21 03:10:15;;;;;;;8.73;1.50;;;13.40;99.90;;;;;;5111744;28;20024;-73
2022/11/21 03:12:43;;;;;;;14.35;1.60;;;13.40;99.90;;;;;;5111556;28;20599;-73
2022/11/21 03:15:13;;;;;;;12.65;2.03;;;13.50;99.90;;;;;;5111559;28;20030;-73
2022/11/21 03:17:40;;;;;;;11.40;1.60;;;13.50;99.90;;;;;;5111916;28;20464;-74
2022/11/21 03:20:07;;;;;;;10.02;1.60;;;13.50;99.90;;;;;;5111827;28;20096;-73
2022/11/21 03:22:33;;;;;;;12.73;1.83;;;13.50;99.90;;;;;;5111689;28;20100;-73
2022/11/21 03:24:59;;;;;;;12.55;1.55;;;13.50;99.90;;;;;;5111560;28;20402;-74
2022/11/21 03:27:26;;;;;;;11.23;2.07;;;13.50;99.90;;;;;;5111360;28;20035;-74
2022/11/21 03:29:52;;;;;;;13.17;1.93;;;13.50;99.90;;;;;;5111148;28;20265;-74
2022/11/21 03:32:18;;;;;;;13.82;1.65;;;13.40;99.90;;;;;;5110618;28;20416;-74
2022/11/21 03:34:44;;;;;;;14.35;1.88;;;13.40;99.90;;;;;;5110773;28;20101;-73
2022/11/21 03:37:10;;;;;;;9.80;1.70;;;13.40;99.90;;;;;;5110358;28;20055;-73
2022/11/21 03:39:36;;;;;;;15.63;1.70;;;13.40;99.90;;;;;;5110844;28;20027;-73
2022/11/21 03:42:02;;;;;;;12.50;1.77;;;13.50;99.90;;;;;;5111164;28;20254;-74
2022/11/21 03:44:29;;;;;;;15.05;1.85;;;13.40;99.90;;;;;;5111087;28;20050;-74
2022/11/21 03:46:55;;;;;;;13.82;1.80;;;13.40;99.90;;;;;;5110897;28;20019;-74
2022/11/21 03:49:21;;;;;;;13.43;1.67;;;13.40;99.90;;;;;;5111044;28;20076;-73
2022/11/21 03:51:47;;;;;;;12.35;1.73;;;13.40;99.90;;;;;;5110676;28;20030;-74
2022/11/21 03:54:13;;;;;;;16.53;2.17;;;13.40;99.90;;;;;;5110885;28;20401;-73
2022/11/21 03:56:39;;;;;;;12.23;2.07;;;13.40;99.90;;;;;;5111393;28;20467;-73
2022/11/21 03:59:05;;;;;;;18.23;2.80;;;13.40;99.90;;;;;;5111109;28;20042;-73
2022/11/21 04:01:32;;;;;;;11.80;2.40;;;13.40;99.90;;;;;;5109676;28;20403;-75
2022/11/21 04:03:58;;;;;;;11.88;1.92;;;13.30;99.90;;;;;;5093819;28;20028;-75
2022/11/21 04:06:25;;;;;;;16.30;1.75;;;13.40;99.90;;;;;;5089682;28;20098;-75
2022/11/21 04:08:52;;;;;;;13.05;2.17;;;13.40;99.90;;;;;;5072850;28;20035;-74
2022/11/21 04:11:20;;;;;;;10.05;1.73;;;13.40;99.90;;;;;;5091208;28;20066;-74
2022/11/21 04:13:47;;;;;;;12.90;1.73;;;13.40;99.90;;;;;;5092391;28;20050;-74
2022/11/21 04:16:13;;;;;;;11.18;1.95;;;13.40;99.90;;;;;;5090409;28;20024;-75
2022/11/21 04:18:39;;;;;;;13.88;1.67;;;13.40;99.90;;;;;;5090126;28;20076;-74
2022/11/21 04:21:07;;;;;;;14.57;1.90;;;13.40;99.90;;;;;;5090882;28;20020;-73
2022/11/21 04:23:33;;;;;;;14.05;1.73;;;13.30;99.90;;;;;;5091522;28;20024;-75
2022/11/21 04:26:00;;;;;;;9.95;1.60;;;13.40;99.90;;;;;;5090491;28;20028;-74
2022/11/21 04:28:26;;;;;;;12.45;1.95;;;13.40;99.90;;;;;;5091003;28;20513;-74
2022/11/21 04:30:52;;;;;;;8.32;1.35;;;13.40;99.90;;;;;;5070393;28;20024;-75
2022/11/21 04:33:18;;;;;;;15.20;1.87;;;13.40;99.90;;;;;;5071151;28;20035;-75
2022/11/21 04:35:45;;;;;;;17.23;2.10;;;13.40;99.90;;;;;;5071198;28;20039;-74
2022/11/21 04:38:12;;;;;;;;;;;13.40;99.90;;;;;;5053280;28;20040;-74
2022/11/21 04:40:38;;;;;;;12.27;1.75;;;13.50;99.90;;;;;;5071407;28;19951;-74
2022/11/21 04:43:05;;;;;;;10.70;1.90;;;13.50;99.90;;;;;;5070954;28;20028;-75
2022/11/21 04:45:31;;;;;;;18.92;2.58;;;13.50;99.90;;;;;;5071366;28;20062;-75
2022/11/21 04:47:57;;;;;;;8.63;1.80;;;13.50;99.90;;;;;;5070813;28;20029;-75
2022/11/21 04:50:23;;;;;;;9.30;1.65;;;13.50;99.90;;;;;;5096506;28;20042;-74
2022/11/21 04:52:51;;;;;;;11.90;1.63;;;13.50;99.90;;;;;;5092102;28;20027;-75
2022/11/21 04:55:17;;;;;;;11.45;1.70;;;13.50;99.90;;;;;;5091135;28;20057;-74
2022/11/21 04:57:43;;;;;;;9.15;1.90;;;13.50;99.90;;;;;;5091384;28;20024;-74
2022/11/21 05:00:10;;;;;;;14.05;1.52;;;13.50;99.90;;;;;;5091482;28;20028;-72
2022/11/21 05:02:36;;;;;;;;;;;13.50;99.90;;;;;;5095520;28;20069;-75
2022/11/21 05:05:02;;;;;;;15.63;2.10;;;13.40;99.90;;;;;;5111409;28;19925;-75
2022/11/21 05:07:28;;;;;;;15.47;2.10;;;13.40;99.90;;;;;;5111458;28;20420;-75
2022/11/21 05:09:55;;;;;;;10.90;1.67;;;13.40;99.90;;;;;;5111184;28;20258;-74
2022/11/21 05:15:06;;;;;;;10.25;1.80;;;13.40;99.90;;;;;;5111421;28;20402;-75
2022/11/21 05:17:32;;;;;;;15.13;1.85;;;13.40;99.90;;;;;;5112031;28;20015;-74
2022/11/21 05:19:58;;;;;;;10.93;1.67;;;13.40;99.90;;;;;;5112822;28;20031;-74
2022/11/21 05:22:24;;;;;;;15.40;1.95;;;13.40;99.90;;;;;;5112646;28;20122;-75
2022/11/21 05:24:50;;;;;;;14.20;1.97;;;13.40;99.90;;;;;;5106047;28;20028;-74
2022/11/21 05:27:16;;;;;;;12.17;2.37;;;13.40;99.90;;;;;;5073622;28;20066;-75
2022/11/21 05:29:42;;;;;;;6.40;1.73;;;13.40;99.90;;;;;;5091773;28;20031;-73
2022/11/21 05:32:08;;;;;;;12.07;1.80;;;13.40;99.90;;;;;;5095731;28;20031;-75
2022/11/21 05:34:34;;;;;;;11.95;2.03;;;13.30;99.90;;;;;;5095505;28;20058;-75
2022/11/21 05:37:00;;;;;;;11.65;1.95;;;13.30;99.90;;;;;;5096070;28;20024;-75
2022/11/21 05:39:27;;;;;;;11.90;1.75;;;13.30;99.90;;;;;;5095282;28;20032;-75
2022/11/21 05:41:53;;;;;;;13.57;1.75;;;13.20;99.90;;;;;;5095410;28;20020;-76
2022/11/21 05:44:19;;;;;;;15.13;2.23;;;13.30;99.90;;;;;;5095828;28;20115;-75
2022/11/21 05:46:46;;;;;;;13.25;2.08;;;13.30;99.90;;;;;;5095281;28;20738;-75
2022/11/21 05:49:12;;;;;;;14.13;1.83;;;13.30;99.90;;;;;;5095110;28;20020;-75
2022/11/21 05:51:38;;;;;;;11.97;1.73;;;13.20;99.90;;;;;;5095364;28;20024;-74
2022/11/21 05:54:04;;;;;;;7.53;1.63;;;13.30;99.90;;;;;;5095501;28;20161;-75
2022/11/21 05:56:31;;;;;;;18.33;2.60;;;13.20;99.90;;;;;;5095518;28;20376;-74
2022/11/21 05:58:58;;;;;;;9.20;1.83;;;13.20;99.90;;;;;;5095162;28;20043;-75
2022/11/21 06:04:10;;;;;;;14.07;1.88;;;13.30;99.90;;;;;;5113106;28;20123;-73
2022/11/21 06:06:36;;;;;;;13.43;1.90;;;13.30;99.90;;;;;;5115210;28;20077;-75
2022/11/21 06:09:03;;;;;;;11.02;1.80;;;13.30;99.90;;;;;;5115091;28;20460;-75
2022/11/21 06:11:29;;;;;;;;;;;13.40;99.90;;;;;;5099999;28;20085;-75
2022/11/21 06:13:55;;;;;;;12.00;1.75;;;13.60;99.90;;;;;;5094541;28;20047;-75
2022/11/21 06:16:21;;;;;;;8.18;1.55;;;13.90;99.90;;;;;;5094252;28;20147;-75
2022/11/21 06:18:53;;;;;;;12.30;1.52;;;14.00;99.90;;;;;;5094352;28;20487;-75
2022/11/21 06:21:24;;;;;;;7.68;1.33;;;14.30;99.90;;;;;;5094561;28;20544;-75
2022/11/21 06:23:52;;;;;;;15.45;2.03;;;14.70;99.90;;;;;;5094270;28;20155;-76
2022/11/21 06:26:21;;;;;;;15.38;1.80;;;14.90;99.90;;;;;;5094708;28;20099;-74
2022/11/21 06:28:47;;;;;;;11.57;1.40;;;15.40;99.90;;;;;;5094355;28;20357;-74
2022/11/21 06:31:14;;;;;;;12.07;1.98;;;15.70;99.90;;;;;;5108712;28;20071;-76
2022/11/21 06:33:41;;;;;;;9.35;1.50;;;16.00;99.90;;;;;;5113469;28;20032;-74
2022/11/21 06:36:12;;;;;;;13.00;1.70;;;16.60;99.90;;;;;;5073730;28;20166;-75
2022/11/21 06:38:40;;;;;;;9.57;1.67;;;17.00;99.90;;;;;;5110055;28;20091;-75
2022/11/21 06:41:11;;;;;;;9.27;1.60;;;17.00;99.90;;;;;;5098798;28;20020;-76
2022/11/21 06:43:37;;;;;;;11.23;1.88;;;17.10;99.90;;;;;;5093559;28;20028;-76
2022/11/21 06:46:03;;;;;;;12.63;1.60;;;17.40;99.90;;;;;;5093380;28;20013;-76
2022/11/21 06:48:30;;;;;;;15.13;2.13;;;17.50;99.90;;;;;;5093599;28;20027;-75
2022/11/21 06:50:57;;;;;;;9.00;1.75;;;17.80;99.90;;;;;;5105500;28;20023;-76
2022/11/21 06:53:23;;;;;;;8.50;1.50;;;18.20;99.90;;;;;;5113432;28;20054;-75
2022/11/21 06:55:50;;;;;;;15.27;2.22;;;18.70;99.90;;;;;;5113410;28;20027;-75
2022/11/21 06:58:16;;;;;;;16.63;2.15;;;19.00;99.90;;;;;;5112911;28;20036;-76
2022/11/21 07:00:43;;;;;;;11.57;2.20;;;19.40;99.90;;;;;;5113230;28;20118;-76
2022/11/21 07:03:09;;;;;;;18.38;3.75;;;19.80;99.90;;;;;;5112467;28;20026;-75
2022/11/21 07:05:35;;;;;;;22.63;5.75;;;20.20;99.90;;;;;;5112807;28;20084;-75
2022/11/21 07:08:02;;;;;;;12.18;3.33;;;20.60;99.90;;;;;;5107639;28;20047;-75
2022/11/21 07:10:29;;;;;;;12.73;3.28;;;20.60;99.90;;;;;;5093016;28;20099;-74
2022/11/21 07:15:45;;;;;;;8.45;2.00;;;20.40;99.90;;;;;;5092306;28;20059;-74
2022/11/21 07:18:11;;;;;;;12.68;1.98;;;21.10;99.90;;;;;;5092216;28;20531;-78
2022/11/21 07:20:38;;;;;;;9.27;1.98;;;21.40;99.90;;;;;;5092979;28;20032;-78
2022/11/21 07:23:04;;;;;;;9.52;1.70;;;21.40;99.90;;;;;;5092498;28;20032;-79
2022/11/21 07:25:31;;;;;;;9.00;2.20;;;21.00;99.90;;;;;;5092658;28;20429;-79
2022/11/21 07:28:01;;;;;;;14.55;2.25;;;20.80;99.90;;;;;;5095738;28;20038;-79
2022/11/21 07:30:28;;;;;;;11.32;1.58;;;21.00;99.90;;;;;;5093884;28;20182;-78
2022/11/21 07:32:59;;;;;;;7.88;1.50;;;20.80;99.90;;;;;;5112481;28;20023;-76
2022/11/21 07:35:26;;;;;;;11.85;1.70;;;20.40;99.90;;;;;;5112428;28;20024;-77
2022/11/21 07:37:52;;;;;;;;;;;19.80;99.90;;;;;;5112600;28;20024;-78
2022/11/21 07:40:19;;;;;;;10.30;2.17;;;19.60;99.90;;;;;;5111999;28;20002;-77
2022/11/21 07:42:45;;;;;;;8.18;1.42;;;19.40;99.90;;;;;;5111904;28;20034;-76
2022/11/21 07:45:12;;;;;;;11.52;2.05;;;19.10;99.90;;;;;;5111774;28;20372;-76
2022/11/21 07:47:40;;;;;;;9.18;1.85;;;19.20;99.90;;;;;;5111716;28;20023;-76
2022/11/21 07:50:21;;;;;;;11.90;1.75;;;18.80;99.90;;;;;;5111803;28;20065;-72
2022/11/21 07:52:47;;;;;;;10.93;3.17;;;18.80;99.90;;;;;;5111348;28;20020;-76
2022/11/21 07:55:13;;;;;;;11.25;2.25;;;18.70;99.90;;;;;;5112489;28;20027;-75
2022/11/21 07:57:39;;;;;;;15.15;2.25;;;18.80;99.90;;;;;;5112120;28;20077;-74
2022/11/21 08:00:06;;;;;;;13.63;2.00;;;18.70;99.90;;;;;;5111796;28;20023;-75
2022/11/21 08:02:32;;;;;;;13.45;2.97;;;18.70;99.90;;;;;;5093606;28;20110;-75
2022/11/21 08:04:58;;;;;;;15.60;3.38;;;18.90;99.90;;;;;;5112020;28;20498;-75
2022/11/21 08:07:24;;;;;;;11.63;2.80;;;19.00;99.90;;;;;;5111594;28;20055;-74
2022/11/21 08:09:50;;;;;;;10.13;3.13;;;19.20;99.90;;;;;;5111458;28;20111;-74
2022/11/21 08:12:16;;;;;;;12.23;2.42;;;19.30;99.90;;;;;;5111251;28;20051;-75
2022/11/21 08:14:42;;;;;;;8.88;2.53;;;19.20;99.90;;;;;;5112247;28;20035;-74
2022/11/21 08:17:08;;;;;;;11.57;2.22;;;19.40;99.90;;;;;;5111322;28;20054;-75
2022/11/21 08:19:34;;;;;;;7.80;2.00;;;19.50;99.90;;;;;;5111228;28;20529;-76
2022/11/21 08:22:01;;;;;;;10.85;1.90;;;19.60;99.90;;;;;;5111709;28;20027;-75
2022/11/21 08:24:27;;;;;;;12.48;2.20;;;19.70;99.90;;;;;;5111709;28;20023;-76
2022/11/21 08:26:53;;;;;;;14.00;3.50;;;19.70;99.90;;;;;;5093394;28;20035;-76
2022/11/21 08:29:19;;;;;;;12.15;4.43;;;19.90;99.90;;;;;;5111434;28;20100;-75
2022/11/21 08:31:46;;;;;;;21.77;5.03;;;20.00;99.90;;;;;;5111704;28;20051;-76
2022/11/21 08:34:12;;;;;;;13.85;4.18;;;20.20;99.90;;;;;;5093451;28;20170;-75
2022/11/21 08:36:38;;;;;;;11.82;3.00;;;20.20;99.90;;;;;;5111465;28;20020;-74
2022/11/21 08:39:04;;;;;;;15.80;2.92;;;20.30;99.90;;;;;;5111894;28;20032;-76
2022/11/21 08:44:15;;;;;;;10.95;2.30;;;20.10;99.90;;;;;;5111618;28;20399;-76
2022/11/21 08:46:41;;;;;;;11.20;2.60;;;20.00;99.90;;;;;;5111557;28;20091;-74
2022/11/21 08:49:07;;;;;;;12.35;2.10;;;20.00;99.90;;;;;;5110814;28;20503;-76
2022/11/21 08:51:36;;;;;;;13.88;3.55;;;20.00;99.90;;;;;;5111075;28;20026;-75
2022/11/21 08:54:03;;;;;;;14.90;2.70;;;20.20;99.90;;;;;;5099422;28;20519;-74
2022/11/21 08:56:29;;;;;;;8.60;2.53;;;20.20;99.90;;;;;;5109200;28;20032;-74
2022/11/21 08:58:55;;;;;;;9.05;1.92;;;20.20;99.90;;;;;;5109081;28;20036;-75
2022/11/21 09:01:22;;;;;;;11.85;2.55;;;19.80;99.90;;;;;;5110237;28;20024;-75
2022/11/21 09:03:48;;;;;;;;;;;19.70;99.90;;;;;;5110961;28;20058;-76
2022/11/21 09:06:14;;;;;;;15.07;2.38;;;19.60;99.90;;;;;;5107727;28;19912;-75
2022/11/21 09:08:40;;;;;;;10.60;1.95;;;19.70;99.90;;;;;;5098689;28;20039;-75
2022/11/21 09:11:08;;;;;;;8.98;1.88;;;19.90;99.90;;;;;;5091931;28;20044;-74
2022/11/21 09:13:35;;;;;;;8.38;1.60;;;19.20;99.90;;;;;;5093210;28;20056;-74
2022/11/21 09:18:47;;;;;;;7.10;1.85;;;19.60;99.90;;;;;;5094785;28;20446;-74
2022/11/21 09:21:16;;;;;;;;;;;19.90;99.90;;;;;;5095013;28;20051;-76
2022/11/21 09:23:43;;;;;;;11.77;2.45;;;20.10;99.90;;;;;;5094548;28;19904;-76
2022/11/21 09:26:09;;;;;;;10.93;2.20;;;20.20;99.90;;;;;;5076307;28;20491;-74
2022/11/21 09:28:35;;;;;;;9.00;2.08;;;20.40;99.90;;;;;;5094920;28;20464;-75
2022/11/21 09:31:02;;;;;;;10.32;2.35;;;20.10;99.90;;;;;;5095358;28;20077;-76
2022/11/21 09:33:28;;;;;;;12.05;2.38;;;19.90;99.90;;;;;;5094929;28;20499;-75
2022/11/21 09:35:57;;;;;;;11.93;1.85;;;19.90;99.90;;;;;;5095089;28;20061;-74
2022/11/21 09:38:25;;;;;;;13.25;2.30;;;19.80;99.90;;;;;;5094465;28;20073;-74
2022/11/21 09:40:58;;;;;;;14.93;3.97;;;19.70;99.90;;;;;;5100095;28;20406;-75
2022/11/21 09:43:37;;;;;;;16.20;3.85;;;19.70;99.90;;;;;;5107267;28;20464;-76
2022/11/21 09:46:12;;;;;;;9.88;2.78;;;19.90;99.90;;;;;;5092344;28;20052;-75
2022/11/21 09:48:54;;;;;;;13.00;2.65;;;20.00;99.90;;;;;;5093328;28;20077;-75
2022/11/21 09:51:22;;;;;;;8.70;2.20;;;20.20;99.90;;;;;;5075530;28;20235;-75
2022/11/21 09:54:05;;;;;;;13.32;2.03;;;20.10;99.90;;;;;;5093891;28;20056;-76
2022/11/21 09:56:38;;;;;;;13.43;2.53;;;20.30;99.90;;;;;;5094162;28;20480;-76
2022/11/21 09:59:19;;;;;;;14.18;2.30;;;20.50;99.90;;;;;;5094278;28;20035;-75
2022/11/21 10:01:46;;;;;;;11.95;2.65;;;20.40;99.90;;;;;;5094052;28;20016;-74
2022/11/21 10:04:12;;;;;;;11.50;2.90;;;20.40;99.90;;;;;;5093583;28;20021;-74
2022/11/21 10:07:04;;;;;;;16.15;4.07;;;20.40;99.90;;;;;;5093817;28;20065;-75
2022/11/21 10:09:39;;;;;;;10.25;2.65;;;20.10;99.90;;;;;;5029377;28;20085;-74
2022/11/21 10:12:37;;;;;;;9.95;2.30;;;19.70;99.90;;;;;;5092807;28;20048;-76
2022/11/21 10:15:38;;;;;;;14.75;2.55;;;19.70;99.90;;;;;;5094583;28;20032;-75
2022/11/21 10:18:26;;;;;;;16.60;3.70;;;19.60;99.90;;;;;;5113586;28;20042;-76
2022/11/21 10:21:14;;;;;;;16.08;4.13;;;19.80;99.90;;;;;;5102299;28;20031;-75
2022/11/21 10:23:50;;;;;;;10.85;2.95;;;19.90;99.90;;;;;;5098311;28;20172;-75
2022/11/21 10:26:44;;;;;;;9.75;3.42;;;20.30;99.90;;;;;;5108598;28;20459;-76
2022/11/21 10:29:32;;;;;;;9.63;2.28;;;20.40;99.90;;;;;;5101741;28;20440;-76
2022/11/21 10:32:02;;;;;;;12.98;2.40;;;20.00;99.90;;;;;;5093373;28;20336;-75
2022/11/21 10:34:36;;;;;;;10.38;2.50;;;19.90;99.90;;;;;;5093258;28;20016;-74
2022/11/21 10:37:14;;;;;;;12.48;2.65;;;19.80;99.90;;;;;;5096749;28;20372;-74
2022/11/21 10:39:42;;;;;;;13.88;4.00;;;20.00;99.90;;;;;;5113418;28;20425;-73
2022/11/21 10:42:14;;;;;;;15.85;4.43;;;20.20;99.90;;;;;;5113046;28;20070;-76
2022/11/21 10:47:36;;;;;;;11.48;3.38;;;20.00;99.90;;;;;;5072376;28;20378;-76
2022/11/21 10:50:09;;;;;;;15.15;3.40;;;19.80;99.90;;;;;;5072025;28;20120;-75
2022/11/21 10:52:46;;;;;;;13.05;3.00;;;19.90;99.90;;;;;;5072502;28;20385;-75
2022/11/21 10:55:13;;;;;;;25.25;5.95;;;19.80;99.90;;;;;;5084990;28;20445;-76
2022/11/21 10:57:44;;;;;;;17.48;5.30;;;19.50;99.90;;;;;;5112435;28;20112;-77
2022/11/21 11:00:15;;;;;;;17.00;3.38;;;19.40;99.90;;;;;;5113044;28;20034;-76
2022/11/21 11:03:06;;;;;;;7.63;2.00;;;19.10;99.90;;;;;;5112870;28;20055;-74
2022/11/21 11:05:33;;;;;;;14.90;3.60;;;18.80;99.90;;;;;;5112253;28;20128;-75
2022/11/21 11:08:00;;;;;;;11.20;3.42;;;18.40;99.90;;;;;;5112483;28;20468;-74
2022/11/21 11:10:26;;;;;;;;;;;18.30;99.90;;;;;;5112482;28;20033;-75
2022/11/21 11:15:52;;;;;;;13.10;2.42;;;18.00;99.90;;;;;;5101951;28;20350;-75
2022/11/21 11:18:23;;;;;;;9.43;1.90;;;17.90;99.90;;;;;;5092074;28;20032;-77
2022/11/21 11:20:49;;;;;;;12.90;1.80;;;18.10;99.90;;;;;;5073224;28;20051;-74
2022/11/21 11:23:25;;;;;;;12.05;1.65;;;18.10;99.90;;;;;;5091745;28;20020;-75
2022/11/21 11:25:52;;;;;;;8.80;1.50;;;18.00;99.90;;;;;;5092312;28;20372;-75
2022/11/21 11:28:19;;;;;;;12.73;2.00;;;18.20;99.90;;;;;;5091498;28;20012;-75
2022/11/21 11:30:47;;;;;;;8.20;1.67;;;18.20;99.90;;;;;;5092071;28;20139;-75
2022/11/21 11:33:32;;;;;;;9.68;2.10;;;18.30;99.90;;;;;;5091900;28;20042;-76
2022/11/21 11:36:18;;;;;;;10.93;2.00;;;18.40;99.90;;;;;;5092239;28;20035;-75
2022/11/21 11:38:56;;;;;;;11.87;2.13;;;18.50;99.90;;;;;;5092077;28;20471;-78
2022/11/21 11:47:30;;;;;;;15.88;2.00;;;18.30;99.90;;;;;;5091712;28;20036;-74
2022/11/21 11:50:10;;;;;;;11.20;1.98;;;18.10;99.90;;;;;;5091949;28;20127;-77
2022/11/21 11:53:20;;;;;;;11.90;2.28;;;17.90;99.90;;;;;;5092262;28;20024;-76
2022/11/21 11:56:16;;;;;;;17.10;2.10;;;17.50;99.90;;;;;;5091127;28;20027;-76
2022/11/21 11:58:53;;;;;;;11.77;2.13;;;17.20;99.90;;;;;;5090855;28;20035;-75
2022/11/21 12:01:45;;;;;;;11.35;2.20;;;17.20;99.90;;;;;;5091384;28;20027;-75
2022/11/21 12:04:17;;;;;;;14.10;2.83;;;17.30;99.90;;;;;;5090150;28;20038;-75
2022/11/21 12:07:05;;;;;;;10.85;2.50;;;17.40;99.90;;;;;;5091479;28;20024;-75
2022/11/21 12:09:36;;;;;;;11.80;2.65;;;17.30;99.90;;;;;;5071702;28;20104;-75
2022/11/21 12:12:34;;;;;;;12.55;2.58;;;17.60;99.90;;;;;;5070829;28;20041;-76
2022/11/21 12:15:49;;;;;;;16.40;2.78;;;18.00;99.90;;;;;;5070575;28;20468;-76
2022/11/21 12:18:18;;;;;;;10.23;1.98;;;18.10;99.90;;;;;;5071296;28;20325;-76
2022/11/21 12:21:03;;;;;;;11.32;2.05;;;18.30;99.90;;;;;;5053169;28;20028;-75
2022/11/21 12:23:45;;;;;;;13.35;2.00;;;18.30;99.90;;;;;;5071459;28;20476;-75
2022/11/21 12:26:29;;;;;;;15.75;1.77;;;18.50;99.90;;;;;;5071405;28;20062;-75
2022/11/21 12:29:25;;;;;;;21.25;2.45;;;18.60;99.90;;;;;;5071178;28;20032;-76
2022/11/21 12:32:28;;;;;;;14.18;2.10;;;18.50;99.90;;;;;;5071670;28;20503;-76
2022/11/21 12:35:12;;;;;;;10.25;1.95;;;18.50;99.90;;;;;;5071196;28;20067;-77
2022/11/21 12:38:04;;;;;;;13.70;2.40;;;18.50;99.90;;;;;;5071182;28;20087;-76
2022/11/21 12:44:30;;;;;;;10.25;1.73;;;18.80;99.90;;;;;;5075811;28;20541;-77
2022/11/21 12:47:17;;;;;;;12.10;1.65;;;18.70;99.90;;;;;;5075092;28;20126;-76
2022/11/21 12:55:41;;;;;;;13.63;1.40;;;19.00;99.90;;;;;;5075809;28;20078;-80
2022/11/21 12:58:16;;;;;;;8.05;1.65;;;18.90;99.90;;;;;;5075322;28;20066;-79
2022/11/21 13:00:57;;;;;;;9.43;1.85;;;19.00;99.90;;;;;;5075175;28;20028;-79
2022/11/21 13:03:29;;;;;;;16.50;1.63;;;19.10;99.90;;;;;;5074945;28;20024;-76
2022/11/21 13:05:57;;;;;;;12.32;2.10;;;19.20;99.90;;;;;;5075174;28;20025;-78
2022/11/21 13:08:29;;;;;;;17.73;2.33;;;19.10;99.90;;;;;;5075119;28;20411;-78
2022/11/21 13:11:57;;;;;;;11.15;1.70;;;19.10;99.90;;;;;;5074807;28;20107;-78
2022/11/21 13:13:51;;;;;;;8.55;1.83;;;19.20;99.90;;;;;;5074410;28;20090;-78
2022/11/21 13:16:43;;;;;;;13.15;1.80;;;19.40;99.90;;;;;;5074900;28;20029;-78
2022/11/21 13:19:48;;;;;;;10.20;1.75;;;19.40;99.90;;;;;;5074968;28;20033;-79
2022/11/21 13:22:36;;;;;;;10.18;1.60;;;19.30;99.90;;;;;;5075455;28;20544;-78
2022/11/21 13:25:22;;;;;;;19.08;1.60;;;19.40;99.90;;;;;;5057065;28;20028;-79
2022/11/21 13:27:48;;;;;;;11.02;1.70;;;19.40;99.90;;;;;;5057170;28;20121;-79
2022/11/21 13:30:19;;;;;;;5.70;1.70;;;19.30;99.90;;;;;;5075082;28;20028;-79
2022/11/21 13:32:50;;;;;;;9.30;1.40;;;19.50;99.90;;;;;;5075274;28;20020;-77
2022/11/21 13:35:19;;;;;;;11.35;1.70;;;19.50;99.90;;;;;;5075276;28;20421;-78